Time;durP1;ratioP1;P1;durP2;ratioP2;P2;SDS_P1;SDS_P2;PMS_P1;PMS_P2;Temp;Humidity;BMP_temperature;BMP_pressure;BME280_temperature;BME280_humidity;BME280_pressure;Samples;Min_cycle;Max_cycle;Signal;HPM_P1;HPM_P2
2022/03/29 00:01:35;;;;;;;189.20;42.97;;;;;;;19.92;40.10;101650.66;5033969;28;20392;-73
2022/03/29 00:04:00;;;;;;;200.00;40.22;;;;;;;19.99;40.03;101641.72;5033907;28;20026;-73
2022/03/29 00:06:26;;;;;;;225.63;48.65;;;;;;;19.98;40.27;101642.09;5033870;28;20087;-73
2022/03/29 00:08:51;;;;;;;268.02;48.33;;;;;;;20.03;40.28;101645.41;5033688;28;20037;-75
2022/03/29 00:11:18;;;;;;;245.63;51.45;;;;;;;20.15;39.88;101642.56;5033761;28;20033;-73
2022/03/29 00:13:44;;;;;;;104.63;35.53;;;;;;;20.21;40.15;101640.34;5033780;28;20036;-73
2022/03/29 00:16:10;;;;;;;181.63;39.85;;;;;;;20.21;40.05;101643.09;5033492;28;20061;-73
2022/03/29 00:18:35;;;;;;;218.13;33.53;;;;;;;20.15;40.57;101639.78;5033543;28;20120;-73
2022/03/29 00:21:01;;;;;;;198.35;28.95;;;;;;;20.15;40.29;101636.19;5033694;28;20033;-74
2022/03/29 00:23:27;;;;;;;211.13;30.15;;;;;;;20.11;40.58;101643.63;5032275;28;20128;-73
2022/03/29 00:25:52;;;;;;;242.32;32.53;;;;;;;20.07;40.73;101637.19;5033315;28;20434;-73
2022/03/29 00:28:18;;;;;;;243.40;30.30;;;;;;;20.17;40.73;101636.63;5033486;28;20052;-73
2022/03/29 00:30:44;;;;;;;278.77;34.15;;;;;;;20.02;41.10;101632.69;5033418;28;20045;-73
2022/03/29 00:33:09;;;;;;;221.40;31.13;;;;;;;19.75;42.04;101637.13;5033273;28;20029;-74
2022/03/29 00:35:35;;;;;;;155.02;30.00;;;;;;;19.98;41.59;101631.00;5032623;28;20108;-73
2022/03/29 00:38:01;;;;;;;296.70;34.25;;;;;;;19.89;41.89;101631.16;5032834;28;20476;-73
2022/03/29 00:40:27;;;;;;;305.40;38.58;;;;;;;19.98;41.54;101623.47;5033269;28;20022;-75
2022/03/29 00:42:52;;;;;;;329.38;42.70;;;;;;;20.08;41.38;101611.03;5033189;28;20021;-73
2022/03/29 00:45:18;;;;;;;292.50;32.15;;;;;;;20.07;41.43;101623.31;5033471;28;20029;-74
2022/03/29 00:47:43;;;;;;;211.10;29.08;;;;;;;20.07;41.46;101621.34;5031765;28;20139;-75
2022/03/29 00:50:10;;;;;;;263.50;40.92;;;;;;;20.02;41.55;101620.78;5033122;28;20025;-73
2022/03/29 00:52:38;;;;;;;310.13;35.05;;;;;;;20.01;41.62;101619.97;5033034;28;20025;-75
2022/03/29 00:55:05;;;;;;;286.70;42.60;;;;;;;20.04;41.49;101610.16;5033005;28;20115;-74
2022/03/29 00:57:34;;;;;;;254.82;34.72;;;;;;;20.04;41.47;101616.50;5032960;28;20022;-73
2022/03/29 00:59:59;;;;;;;286.70;36.47;;;;;;;19.98;41.74;101614.34;5031652;28;20029;-73
2022/03/29 01:02:25;;;;;;;269.08;32.30;;;;;;;20.08;41.47;101605.50;5031533;28;20500;-74
2022/03/29 01:04:50;;;;;;;187.98;31.70;;;;;;;20.06;41.50;101600.31;5032839;28;20027;-75
2022/03/29 01:07:16;;;;;;;207.70;35.70;;;;;;;19.98;41.72;101598.50;5033039;28;20464;-73
2022/03/29 01:09:42;;;;;;;179.68;30.00;;;;;;;19.84;42.01;101598.94;5032737;28;20029;-73
2022/03/29 01:12:08;;;;;;;181.75;29.15;;;;;;;19.92;41.73;101603.50;5032469;28;20547;-73
2022/03/29 01:14:34;;;;;;;212.48;35.80;;;;;;;19.93;41.86;101602.34;5031429;28;20029;-73
2022/03/29 01:19:47;;;;;;;153.07;27.98;;;;;;;19.90;41.81;101596.72;5032707;28;20032;-73
2022/03/29 01:22:13;;;;;;;267.15;35.67;;;;;;;19.87;42.03;101591.84;5032634;28;20026;-73
2022/03/29 01:24:43;;;;;;;118.90;23.88;;;;;;;19.92;41.87;101589.63;5032556;28;20025;-74
2022/03/29 01:27:11;;;;;;;247.63;38.10;;;;;;;19.93;41.92;101588.47;5032539;28;20029;-74
2022/03/29 01:29:38;;;;;;;120.50;23.55;;;;;;;19.91;41.96;101593.56;5032484;28;20021;-73
2022/03/29 01:32:07;;;;;;;158.20;27.60;;;;;;;19.95;41.96;101590.91;5032388;28;20029;-73
2022/03/29 01:34:34;;;;;;;224.35;35.67;;;;;;;19.88;42.19;101587.94;5032364;28;20021;-75
2022/03/29 01:37:03;;;;;;;165.07;30.02;;;;;;;19.89;42.00;101584.00;5032294;28;20042;-74
2022/03/29 01:39:28;;;;;;;234.27;37.63;;;;;;;19.84;42.21;101585.06;5032386;28;20075;-73
2022/03/29 01:41:54;;;;;;;190.70;33.97;;;;;;;19.83;42.19;101583.47;5032344;28;20026;-73
2022/03/29 01:44:19;;;;;;;119.38;22.70;;;;;;;19.82;42.23;101578.28;5032578;28;20037;-73
2022/03/29 01:46:45;;;;;;;178.85;30.98;;;;;;;19.85;41.98;101583.91;5032335;28;20021;-74
2022/03/29 01:49:12;;;;;;;214.55;37.22;;;;;;;19.86;41.97;101587.47;5035835;28;20148;-73
2022/03/29 01:51:37;;;;;;;125.65;25.02;;;;;;;19.75;42.43;101584.44;5036342;28;20026;-73
2022/03/29 01:54:03;;;;;;;84.95;21.42;;;;;;;19.82;42.07;101578.28;5036369;28;20021;-73
2022/03/29 01:56:31;;;;;;;113.72;23.10;;;;;;;19.84;42.14;101573.97;5036373;28;20022;-73
2022/03/29 01:59:05;;;;;;;87.45;21.88;;;;;;;19.89;41.96;101570.16;5036294;28;20079;-75
2022/03/29 02:01:30;;;;;;;156.18;27.58;;;;;;;19.93;41.94;101569.06;5036284;28;20109;-75
2022/03/29 02:03:56;;;;;;;103.85;25.80;;;;;;;19.94;41.92;101572.63;5036575;28;20105;-73
2022/03/29 02:06:21;;;;;;;73.43;22.70;;;;;;;19.97;41.72;101573.91;5036032;28;20021;-73
2022/03/29 02:08:47;;;;;;;101.95;29.33;;;;;;;19.97;41.94;101568.38;5034869;28;20033;-73
2022/03/29 02:11:13;;;;;;;119.35;28.25;;;;;;;19.98;41.99;101558.88;5034676;28;20029;-73
2022/03/29 02:13:39;;;;;;;106.20;30.13;;;;;;;20.05;42.04;101551.53;5036261;28;20033;-73
2022/03/29 02:16:05;;;;;;;170.05;37.42;;;;;;;20.07;41.99;101545.63;5035869;28;20401;-75
2022/03/29 02:18:31;;;;;;;203.05;41.47;;;;;;;20.21;41.70;101549.56;5035873;28;20025;-73
2022/03/29 02:20:56;;;;;;;173.73;39.45;;;;;;;20.26;41.76;101539.38;5035919;28;20030;-74
2022/03/29 02:23:22;;;;;;;99.25;27.20;;;;;;;20.19;41.78;101540.00;5035897;28;20033;-73
2022/03/29 02:25:48;;;;;;;142.65;38.33;;;;;;;20.20;41.94;101533.28;5035597;28;20037;-74
2022/03/29 02:28:14;;;;;;;86.45;30.08;;;;;;;20.18;42.00;101530.06;5034609;28;20036;-74
2022/03/29 02:30:40;;;;;;;125.80;33.38;;;;;;;20.16;42.04;101526.81;5035755;28;20372;-73
2022/03/29 02:33:07;;;;;;;99.07;32.85;;;;;;;20.20;41.94;101527.72;5035640;28;20033;-73
2022/03/29 02:35:33;;;;;;;80.32;26.98;;;;;;;20.24;42.06;101525.84;5035518;28;20037;-74
2022/03/29 02:37:59;;;;;;;99.20;28.88;;;;;;;20.30;41.74;101524.41;5035536;28;20041;-73
2022/03/29 02:40:25;;;;;;;85.57;25.20;;;;;;;20.21;41.92;101523.78;5035464;28;20116;-73
2022/03/29 02:42:52;;;;;;;51.42;23.50;;;;;;;20.27;41.83;101522.34;5035784;28;20029;-75
2022/03/29 02:45:21;;;;;;;62.38;23.50;;;;;;;20.29;41.67;101520.03;5035369;28;20025;-73
2022/03/29 02:47:49;;;;;;;76.95;27.05;;;;;;;20.30;41.75;101515.28;5035356;28;20071;-73
2022/03/29 02:50:16;;;;;;;63.88;26.13;;;;;;;20.32;41.78;101501.81;5035436;28;20484;-73
2022/03/29 02:52:50;;;;;;;62.78;23.63;;;;;;;20.24;41.88;101498.88;5033807;28;20472;-73
2022/03/29 02:55:20;;;;;;;55.90;22.95;;;;;;;20.31;41.81;101492.69;5034090;28;20083;-73
2022/03/29 02:57:46;;;;;;;81.32;26.65;;;;;;;20.33;41.67;101492.34;5035184;28;20033;-73
2022/03/29 03:00:16;;;;;;;59.75;24.35;;;;;;;20.25;41.75;101496.91;5034091;28;20036;-73
2022/03/29 03:02:44;;;;;;;64.47;26.55;;;;;;;20.31;41.55;101484.38;5035143;28;20036;-73
2022/03/29 03:05:10;;;;;;;49.33;23.80;;;;;;;20.26;41.64;101481.91;5035035;28;20104;-74
2022/03/29 03:07:37;;;;;;;64.53;25.33;;;;;;;20.23;41.78;101482.59;5033777;28;20025;-74
2022/03/29 03:10:04;;;;;;;51.80;23.67;;;;;;;20.26;41.85;101483.88;5034829;28;20036;-73
2022/03/29 03:12:42;;;;;;;64.78;25.70;;;;;;;20.28;41.71;101476.78;5034838;28;20033;-74
2022/03/29 03:15:09;;;;;;;59.50;25.75;;;;;;;20.30;41.54;101468.09;5035012;28;20036;-73
2022/03/29 03:17:35;;;;;;;77.82;26.77;;;;;;;20.32;41.39;101472.09;5034703;28;20107;-73
2022/03/29 03:20:02;;;;;;;51.65;26.48;;;;;;;20.30;41.64;101463.34;5034596;28;20025;-73
2022/03/29 03:22:28;;;;;;;44.88;23.30;;;;;;;20.35;41.65;101468.63;5034749;28;20033;-73
2022/03/29 03:24:53;;;;;;;60.22;25.73;;;;;;;20.41;41.30;101456.06;5033391;28;20040;-73
2022/03/29 03:27:19;;;;;;;62.13;24.38;;;;;;;20.40;41.54;101446.16;5034588;28;20518;-75
2022/03/29 03:29:45;;;;;;;52.05;23.35;;;;;;;20.39;41.54;101452.03;5034540;28;20037;-73
2022/03/29 03:32:12;;;;;;;46.15;25.60;;;;;;;20.42;41.47;101446.59;5034506;28;20033;-73
2022/03/29 03:34:38;;;;;;;46.88;25.58;;;;;;;20.45;41.58;101443.09;5034667;28;20040;-72
2022/03/29 03:37:04;;;;;;;62.25;25.30;;;;;;;20.46;41.42;101452.22;5034094;28;20046;-73
2022/03/29 03:39:35;;;;;;;57.85;26.92;;;;;;;20.45;41.41;101450.63;5032666;28;20032;-73
2022/03/29 03:42:10;;;;;;;49.20;23.23;;;;;;;20.38;41.59;101444.88;5033054;28;20109;-76
2022/03/29 03:44:37;;;;;;;67.22;23.75;;;;;;;20.39;41.55;101444.50;5034371;28;20041;-74
2022/03/29 03:47:03;;;;;;;57.20;23.45;;;;;;;20.53;41.11;101432.16;5016438;28;20033;-73
2022/03/29 03:49:29;;;;;;;48.05;24.60;;;;;;;20.47;41.20;101435.19;5034130;28;20049;-73
2022/03/29 03:51:55;;;;;;;66.78;26.23;;;;;;;20.39;41.64;101430.63;5034109;28;20060;-73
2022/03/29 03:54:21;;;;;;;70.53;25.17;;;;;;;20.52;41.15;101431.34;5016331;28;20034;-75
2022/03/29 03:56:46;;;;;;;79.82;24.65;;;;;;;20.40;41.35;101423.13;5034027;28;20071;-73
2022/03/29 03:59:12;;;;;;;54.00;26.48;;;;;;;20.36;41.45;101420.28;5034038;28;20034;-74
2022/03/29 04:01:37;;;;;;;55.72;27.13;;;;;;;20.39;41.46;101421.50;5033809;28;20034;-73
2022/03/29 04:04:03;;;;;;;63.80;27.10;;;;;;;20.37;41.62;101415.53;5033941;28;20033;-73
2022/03/29 04:06:29;;;;;;;58.83;27.17;;;;;;;20.39;41.42;101421.50;5034189;28;20083;-74
2022/03/29 04:08:54;;;;;;;50.42;26.30;;;;;;;20.41;41.61;101416.41;5033921;28;20475;-74
2022/03/29 04:11:20;;;;;;;56.65;26.95;;;;;;;20.38;41.55;101415.16;5015858;28;20029;-74
2022/03/29 04:13:46;;;;;;;50.28;25.85;;;;;;;20.27;41.87;101414.13;5016082;28;20029;-75
2022/03/29 04:16:12;;;;;;;63.25;27.98;;;;;;;20.31;41.76;101409.44;5033819;28;20544;-74
2022/03/29 04:18:38;;;;;;;70.72;27.65;;;;;;;20.42;41.58;101413.28;5033651;28;20037;-73
2022/03/29 04:21:08;;;;;;;70.80;30.23;;;;;;;20.31;41.83;101409.44;5033520;28;20035;-74
2022/03/29 04:23:37;;;;;;;71.05;30.35;;;;;;;20.39;41.83;101407.63;5033852;28;20037;-74
2022/03/29 04:26:04;;;;;;;63.35;30.08;;;;;;;20.33;41.88;101409.91;5033584;28;20163;-74
2022/03/29 04:28:31;;;;;;;64.78;31.52;;;;;;;20.34;41.73;101408.75;5033489;28;20029;-74
2022/03/29 04:30:59;;;;;;;49.40;28.73;;;;;;;20.37;41.82;101407.19;5033566;28;20123;-76
2022/03/29 04:33:26;;;;;;;56.35;30.50;;;;;;;20.34;41.84;101403.19;5033320;28;20395;-75
2022/03/29 04:35:52;;;;;;;50.47;30.85;;;;;;;20.37;41.84;101398.88;5033180;28;20480;-74
2022/03/29 04:38:17;;;;;;;52.28;31.25;;;;;;;20.30;42.02;101395.94;5033292;28;20108;-73
2022/03/29 04:40:43;;;;;;;56.65;33.75;;;;;;;20.28;42.05;101393.53;5032966;28;20159;-74
2022/03/29 04:43:09;;;;;;;56.42;31.65;;;;;;;20.33;42.01;101381.31;5033044;28;20104;-74
2022/03/29 04:45:34;;;;;;;60.88;31.65;;;;;;;20.42;41.82;101377.19;5033215;28;20104;-74
2022/03/29 04:48:00;;;;;;;55.05;31.70;;;;;;;20.41;42.17;101388.66;5033162;28;20109;-74
2022/03/29 04:50:26;;;;;;;71.72;34.65;;;;;;;20.41;41.96;101383.13;5033118;28;20059;-74
2022/03/29 04:52:51;;;;;;;77.07;36.78;;;;;;;20.32;42.16;101379.72;5032869;28;20543;-74
2022/03/29 04:55:18;;;;;;;74.95;34.67;;;;;;;20.40;42.02;101387.88;5015259;28;20186;-74
2022/03/29 04:57:47;;;;;;;181.55;47.95;;;;;;;20.40;41.89;101375.94;5032893;28;20484;-74
2022/03/29 05:00:16;;;;;;;72.93;34.72;;;;;;;20.42;42.11;101379.16;5032898;28;20037;-74
2022/03/29 05:02:46;;;;;;;61.78;35.00;;;;;;;20.44;42.06;101382.41;5032961;28;20026;-75
2022/03/29 05:05:12;;;;;;;68.53;34.45;;;;;;;20.35;42.24;101385.38;5032909;28;20100;-74
2022/03/29 05:07:38;;;;;;;64.88;33.67;;;;;;;20.30;42.27;101388.41;5032804;28;20040;-74
2022/03/29 05:10:04;;;;;;;67.00;37.78;;;;;;;20.29;42.43;101386.81;5032727;28;20064;-74
2022/03/29 05:12:38;;;;;;;62.97;35.08;;;;;;;20.30;42.34;101384.84;5032651;28;20518;-74
2022/03/29 05:15:05;;;;;;;67.72;34.80;;;;;;;20.21;42.70;101385.06;5015350;28;20395;-74
2022/03/29 05:17:31;;;;;;;60.63;33.03;;;;;;;20.21;42.38;101379.50;5032630;28;20542;-74
2022/03/29 05:19:57;;;;;;;81.35;32.50;;;;;;;20.18;42.30;101378.28;5032557;28;20083;-75
2022/03/29 05:22:22;;;;;;;115.18;36.92;;;;;;;20.17;42.23;101384.16;5032081;28;20029;-74
2022/03/29 05:24:48;;;;;;;81.18;33.70;;;;;;;20.12;42.27;101384.47;5032886;28;20120;-74
2022/03/29 05:27:13;;;;;;;92.32;33.90;;;;;;;20.09;42.22;101380.41;5032478;28;20479;-74
2022/03/29 05:29:39;;;;;;;82.07;31.75;;;;;;;20.09;42.21;101382.38;5032797;28;20040;-74
2022/03/29 05:32:05;;;;;;;75.90;30.48;;;;;;;20.08;41.94;101380.78;5032330;28;20115;-74
2022/03/29 05:34:31;;;;;;;80.72;31.33;;;;;;;20.03;42.28;101381.88;5032032;28;20388;-73
2022/03/29 05:36:57;;;;;;;79.65;30.45;;;;;;;19.98;42.31;101384.13;5032091;28;20396;-74
2022/03/29 05:39:22;;;;;;;86.55;31.48;;;;;;;19.91;42.46;101380.03;5032410;28;20030;-73
2022/03/29 05:41:48;;;;;;;72.68;30.98;;;;;;;20.14;41.95;101380.16;5032301;28;20061;-74
2022/03/29 05:44:13;;;;;;;127.43;34.85;;;;;;;20.02;42.19;101385.00;5031555;28;20033;-73
2022/03/29 05:49:24;;;;;;;62.63;30.05;;;;;;;20.00;42.13;101381.78;5028024;28;20392;-73
2022/03/29 05:51:52;;;;;;;54.88;29.15;;;;;;;19.88;42.33;101377.19;5032070;28;20131;-73
2022/03/29 05:54:18;;;;;;;55.35;29.30;;;;;;;19.89;42.39;101379.59;5031578;28;20025;-74
2022/03/29 05:56:44;;;;;;;56.05;29.77;;;;;;;19.90;42.23;101381.19;5031869;28;20017;-73
2022/03/29 05:59:10;;;;;;;53.95;29.25;;;;;;;19.88;42.45;101388.28;5032024;28;20075;-73
2022/03/29 06:01:37;;;;;;;45.72;28.67;;;;;;;19.81;42.39;101383.38;5032334;28;20029;-73
2022/03/29 06:04:06;;;;;;;44.17;27.48;;;;;;;19.76;42.62;101380.84;5032244;28;20032;-72
2022/03/29 06:06:34;;;;;;;48.78;27.90;;;;;;;19.82;42.48;101381.38;5026966;28;20345;-74
2022/03/29 06:09:00;;;;;;;41.33;25.95;;;;;;;19.78;42.50;101381.28;5011051;28;20054;-81
2022/03/29 06:11:25;;;;;;;47.08;27.45;;;;;;;19.75;42.62;101382.03;5011135;28;20022;-78
2022/03/29 06:13:51;;;;;;;44.90;27.02;;;;;;;19.74;42.50;101380.41;5012520;28;20037;-72
2022/03/29 06:16:17;;;;;;;45.90;28.17;;;;;;;19.77;42.48;101370.56;5013630;28;20408;-72
2022/03/29 06:18:42;;;;;;;45.72;27.98;;;;;;;19.79;42.54;101374.56;5031548;28;20156;-73
2022/03/29 06:21:08;;;;;;;46.35;27.80;;;;;;;19.53;43.10;101383.44;5031280;28;20029;-75
2022/03/29 06:23:34;;;;;;;49.47;28.35;;;;;;;19.71;42.60;101378.34;5016211;28;20038;-73
2022/03/29 06:26:00;;;;;;;41.20;26.05;;;;;;;19.72;42.53;101385.50;5015849;28;20075;-72
2022/03/29 06:28:26;;;;;;;40.72;26.27;;;;;;;19.73;42.53;101378.00;5015328;28;20037;-73
2022/03/29 06:30:51;;;;;;;44.55;26.02;;;;;;;19.75;42.46;101379.25;5016000;28;20464;-73
2022/03/29 06:33:17;;;;;;;44.42;27.00;;;;;;;19.65;42.61;101380.63;5018977;28;20044;-74
2022/03/29 06:35:42;;;;;;;39.70;26.02;;;;;;;19.77;42.38;101376.91;5044855;28;20036;-78
2022/03/29 06:38:08;;;;;;;40.13;26.23;;;;;;;19.74;42.58;101382.38;5037472;28;20399;-73
2022/03/29 06:40:34;;;;;;;41.53;26.23;;;;;;;19.74;42.62;101382.38;5054935;28;20391;-72
2022/03/29 06:43:00;;;;;;;36.03;25.20;;;;;;;19.76;42.44;101380.84;5032522;28;20037;-80
2022/03/29 06:45:27;;;;;;;38.88;24.27;;;;;;;19.72;42.63;101379.94;5035370;28;20030;-78
2022/03/29 06:47:53;;;;;;;41.25;25.92;;;;;;;19.71;42.72;101374.78;5034116;28;20091;-72
2022/03/29 06:50:19;;;;;;;36.38;25.45;;;;;;;19.67;42.70;101369.16;5035022;28;20057;-76
2022/03/29 06:52:46;;;;;;;36.38;23.58;;;;;;;19.74;42.59;101365.75;5035192;28;20076;-78
2022/03/29 06:55:16;;;;;;;30.52;22.40;;;;;;;19.65;42.64;101366.75;5002271;28;20099;-73
2022/03/29 06:57:43;;;;;;;34.65;24.25;;;;;;;19.64;42.83;101367.88;5017983;28;20899;-72
2022/03/29 07:00:10;;;;;;;32.38;23.13;;;;;;;19.76;42.52;101367.00;5031130;28;20447;-72
2022/03/29 07:02:36;;;;;;;38.03;23.20;;;;;;;19.81;42.45;101366.72;5035126;28;20395;-72
2022/03/29 07:05:03;;;;;;;33.67;22.92;;;;;;;19.78;42.53;101372.97;5034963;28;20446;-72
2022/03/29 07:07:29;;;;;;;36.33;23.65;;;;;;;19.81;42.58;101375.03;5016821;28;20112;-71
2022/03/29 07:12:54;;;;;;;30.35;22.25;;;;;;;19.80;42.86;101370.66;5034795;28;20049;-76
2022/03/29 07:15:20;;;;;;;31.08;22.30;;;;;;;19.94;42.55;101373.75;5034192;28;20028;-72
2022/03/29 07:17:47;;;;;;;34.83;24.08;;;;;;;20.05;42.35;101373.19;5034211;28;20036;-80
2022/03/29 07:20:15;;;;;;;34.90;24.20;;;;;;;20.06;42.50;101377.59;5033591;28;20032;-71
2022/03/29 07:22:42;;;;;;;32.40;24.23;;;;;;;20.02;42.63;101383.03;5033329;28;20025;-72
2022/03/29 07:25:08;;;;;;;33.20;23.30;;;;;;;20.02;42.63;101385.81;5034074;28;20029;-72
2022/03/29 07:27:34;;;;;;;39.65;24.55;;;;;;;20.10;42.60;101395.94;5032810;28;20033;-72
2022/03/29 07:30:00;;;;;;;34.88;22.38;;;;;;;20.02;42.54;101388.56;5031913;28;20033;-75
2022/03/29 07:32:27;;;;;;;36.80;24.30;;;;;;;20.04;42.80;101391.81;5033482;28;20516;-71
2022/03/29 07:34:54;;;;;;;37.20;24.05;;;;;;;20.13;42.74;101391.63;5016592;28;20025;-73
2022/03/29 07:37:21;;;;;;;27.83;22.33;;;;;;;20.19;42.60;101382.66;5015055;28;20507;-80
2022/03/29 07:39:47;;;;;;;35.22;22.92;;;;;;;20.24;42.53;101393.44;5032239;28;20531;-80
2022/03/29 07:42:12;;;;;;;31.65;23.60;;;;;;;20.16;42.77;101388.09;5032424;28;20041;-78
2022/03/29 07:44:38;;;;;;;35.53;23.83;;;;;;;20.27;42.60;101372.50;5032460;28;20044;-73
2022/03/29 07:47:04;;;;;;;31.35;23.73;;;;;;;20.38;42.68;101378.28;5031816;28;20029;-72
2022/03/29 07:49:29;;;;;;;33.90;24.52;;;;;;;20.38;42.67;101381.03;5033423;28;20460;-74
2022/03/29 07:51:58;;;;;;;32.92;23.98;;;;;;;20.30;42.74;101373.75;5033897;28;20483;-75
2022/03/29 07:54:24;;;;;;;30.92;23.45;;;;;;;20.49;42.43;101373.78;5035554;28;20024;-72
2022/03/29 07:56:50;;;;;;;37.17;24.98;;;;;;;20.49;42.58;101374.59;5033145;28;20029;-80
2022/03/29 07:59:15;;;;;;;30.90;22.55;;;;;;;20.59;42.32;101375.19;5033777;28;20021;-74
2022/03/29 08:01:41;;;;;;;31.70;22.33;;;;;;;20.66;42.36;101369.78;5032774;28;20044;-78
2022/03/29 08:04:09;;;;;;;32.78;23.45;;;;;;;20.74;42.30;101382.63;5034010;28;20033;-71
2022/03/29 08:06:35;;;;;;;34.75;23.98;;;;;;;20.89;42.07;101369.81;5016139;28;20438;-73
2022/03/29 08:09:00;;;;;;;35.53;25.10;;;;;;;20.84;42.43;101370.09;5033764;28;20034;-72
2022/03/29 08:11:26;;;;;;;30.17;24.35;;;;;;;20.85;42.33;101369.72;5033867;28;20033;-72
2022/03/29 08:13:52;;;;;;;33.72;23.85;;;;;;;20.82;42.46;101364.13;5033817;28;20033;-71
2022/03/29 08:16:17;;;;;;;27.80;23.38;;;;;;;20.91;42.19;101367.47;5037679;28;20030;-71
2022/03/29 08:18:43;;;;;;;31.15;23.90;;;;;;;20.58;43.03;101365.25;5033570;28;20025;-71
2022/03/29 08:23:53;;;;;;;32.55;24.95;;;;;;;21.09;42.39;101363.06;5033485;28;20122;-72
2022/03/29 08:26:19;;;;;;;30.67;24.27;;;;;;;21.25;42.29;101371.28;5015426;28;20068;-76
2022/03/29 08:28:46;;;;;;;39.15;26.48;;;;;;;21.34;41.97;101369.06;5032604;28;20079;-72
2022/03/29 08:31:12;;;;;;;37.50;27.88;;;;;;;21.32;42.40;101368.66;5031201;28;20045;-72
2022/03/29 08:33:37;;;;;;;33.13;24.67;;;;;;;20.81;43.53;101365.28;5032587;28;20155;-72
2022/03/29 08:36:03;;;;;;;33.95;25.50;;;;;;;21.44;42.01;101364.84;5032832;28;20598;-72
2022/03/29 08:38:30;;;;;;;35.03;26.27;;;;;;;21.54;41.95;101367.84;5031638;28;20025;-71
2022/03/29 08:40:59;;;;;;;32.42;26.10;;;;;;;21.69;41.68;101368.88;5015555;28;20025;-73
2022/03/29 08:43:27;;;;;;;32.92;26.15;;;;;;;21.68;41.80;101372.00;5015201;28;20037;-73
2022/03/29 08:45:53;;;;;;;33.30;24.75;;;;;;;21.56;41.50;101370.22;5032610;28;20396;-71
2022/03/29 08:48:23;;;;;;;30.67;25.52;;;;;;;20.88;42.65;101371.78;5015301;28;20030;-71
2022/03/29 08:50:51;;;;;;;35.50;25.98;;;;;;;21.22;41.33;101363.66;5032850;28;20017;-73
2022/03/29 08:53:20;;;;;;;33.67;25.88;;;;;;;20.96;42.00;101365.19;5039775;28;20064;-73
2022/03/29 08:55:46;;;;;;;32.08;24.38;;;;;;;21.08;41.78;101363.41;5052809;28;20017;-72
2022/03/29 08:58:12;;;;;;;35.25;26.02;;;;;;;21.02;42.12;101365.69;5050846;28;20025;-72
2022/03/29 09:00:38;;;;;;;32.70;24.95;;;;;;;20.53;42.87;101359.97;5020338;28;20040;-72
2022/03/29 09:03:04;;;;;;;35.63;27.25;;;;;;;21.06;41.57;101359.03;5032957;28;20542;-72
2022/03/29 09:05:30;;;;;;;32.30;25.88;;;;;;;20.99;41.96;101356.13;5032886;28;20451;-73
2022/03/29 09:08:02;;;;;;;34.65;26.73;;;;;;;20.92;42.04;101353.19;5032708;28;20064;-72
2022/03/29 09:10:44;;;;;;;33.80;26.00;;;;;;;20.17;43.69;101350.88;5032714;28;20075;-77
2022/03/29 09:13:17;;;;;;;35.10;25.92;;;;;;;20.41;43.02;101349.81;5032675;28;20495;-72
2022/03/29 09:15:42;;;;;;;42.75;29.17;;;;;;;20.88;41.85;101354.31;5032599;28;20026;-75
2022/03/29 09:18:09;;;;;;;48.78;28.55;;;;;;;20.33;43.38;101337.75;5033256;28;20083;-71
2022/03/29 09:20:35;;;;;;;33.65;24.58;;;;;;;20.02;44.13;101341.41;5034957;28;20026;-71
2022/03/29 09:23:01;;;;;;;35.47;29.08;;;;;;;20.64;42.80;101347.94;5036627;28;20098;-76
2022/03/29 09:25:36;;;;;;;31.80;25.42;;;;;;;19.73;44.38;101348.31;5034070;28;20025;-71
2022/03/29 09:28:13;;;;;;;33.75;27.02;;;;;;;20.71;42.71;101350.03;5036419;28;20104;-79
2022/03/29 09:30:45;;;;;;;32.60;25.75;;;;;;;20.14;43.81;101357.94;5035301;28;20057;-71
2022/03/29 09:33:12;;;;;;;33.20;26.92;;;;;;;20.71;42.64;101347.28;5032805;28;20028;-71
2022/03/29 09:36:03;;;;;;;35.75;27.30;;;;;;;20.21;43.43;101351.75;5032994;28;20083;-71
2022/03/29 09:38:36;;;;;;;32.22;24.58;;;;;;;20.11;43.78;101355.91;5034982;28;20029;-71
2022/03/29 09:41:04;;;;;;;34.45;26.45;;;;;;;20.14;43.87;101359.91;5034076;28;20028;-73
2022/03/29 09:43:31;;;;;;;32.17;25.13;;;;;;;20.53;42.96;101359.97;5014690;28;20036;-73
2022/03/29 09:46:01;;;;;;;33.20;26.50;;;;;;;20.06;43.81;101356.19;5009329;28;20464;-72
2022/03/29 09:48:37;;;;;;;33.75;25.08;;;;;;;20.01;43.85;101358.44;5012789;28;20103;-72
2022/03/29 09:51:15;;;;;;;33.75;25.92;;;;;;;20.24;43.29;101360.16;5012843;28;20029;-73
2022/03/29 09:53:56;;;;;;;30.33;25.27;;;;;;;20.57;42.58;101360.88;5029203;28;20033;-72
2022/03/29 09:56:28;;;;;;;35.17;26.80;;;;;;;20.62;42.43;101357.78;5031273;28;20029;-72
2022/03/29 09:59:09;;;;;;;36.90;25.98;;;;;;;20.96;42.52;101356.06;5032434;28;20032;-72
2022/03/29 10:01:57;;;;;;;34.72;26.38;;;;;;;20.74;42.77;101357.63;5014536;28;20373;-75
2022/03/29 10:04:29;;;;;;;39.92;27.13;;;;;;;20.35;43.80;101354.84;5014725;28;20029;-80
2022/03/29 10:06:57;;;;;;;31.35;25.00;;;;;;;20.58;43.27;101356.91;5029966;28;20029;-79
2022/03/29 10:09:27;;;;;;;34.03;26.00;;;;;;;20.79;42.66;101365.66;5034300;28;20025;-72
2022/03/29 10:12:05;;;;;;;34.58;26.77;;;;;;;20.92;42.25;101363.50;5036018;28;20498;-72
2022/03/29 10:14:38;;;;;;;33.95;26.30;;;;;;;21.31;41.62;101367.03;5036172;28;20030;-72
2022/03/29 10:17:04;;;;;;;35.83;26.75;;;;;;;21.35;41.31;101359.56;5036347;28;20079;-71
2022/03/29 10:19:30;;;;;;;37.35;27.23;;;;;;;21.40;41.31;101359.25;5035924;28;20084;-71
2022/03/29 10:21:58;;;;;;;32.72;25.38;;;;;;;20.79;42.47;101357.34;5035808;28;20033;-71
2022/03/29 10:24:24;;;;;;;36.45;26.83;;;;;;;20.60;42.85;101360.13;5036129;28;20029;-76
2022/03/29 10:26:52;;;;;;;40.72;29.70;;;;;;;21.05;41.99;101360.19;5034718;28;20587;-71
2022/03/29 10:29:18;;;;;;;39.97;30.00;;;;;;;21.06;42.07;101352.66;5035257;28;20431;-71
2022/03/29 10:32:07;;;;;;;48.75;31.48;;;;;;;21.11;42.38;101354.34;5035597;28;20030;-71
2022/03/29 10:34:42;;;;;;;39.70;29.45;;;;;;;21.30;41.75;101355.09;5025226;28;20462;-75
2022/03/29 10:37:13;;;;;;;37.20;28.95;;;;;;;21.18;42.00;101346.13;5035487;28;20061;-71
2022/03/29 10:39:49;;;;;;;41.38;28.98;;;;;;;21.29;41.91;101344.34;5035545;28;20104;-71
2022/03/29 10:42:33;;;;;;;32.45;24.75;;;;;;;21.12;42.04;101342.84;5017920;28;20021;-73
2022/03/29 10:45:13;;;;;;;45.17;27.90;;;;;;;21.39;41.49;101337.41;5035541;28;20025;-71
2022/03/29 10:47:41;;;;;;;34.78;26.85;;;;;;;21.24;41.84;101330.75;5035361;28;20376;-78
2022/03/29 10:50:10;;;;;;;36.92;26.92;;;;;;;20.86;42.57;101337.22;5035346;28;20031;-71
2022/03/29 10:52:49;;;;;;;33.97;26.42;;;;;;;21.17;41.86;101327.84;5035346;28;20036;-71
2022/03/29 10:55:17;;;;;;;33.83;27.13;;;;;;;21.31;41.75;101330.88;5017563;28;20025;-74
2022/03/29 10:58:03;;;;;;;36.55;26.27;;;;;;;21.32;42.02;101322.19;5033640;28;20025;-79
2022/03/29 11:00:31;;;;;;;36.75;26.65;;;;;;;21.74;41.35;101321.25;5035134;28;20029;-71
2022/03/29 11:03:13;;;;;;;42.38;28.05;;;;;;;22.21;40.59;101321.91;5035241;28;20022;-71
2022/03/29 11:06:10;;;;;;;33.70;23.92;;;;;;;21.90;40.96;101315.50;5017338;28;20029;-72
2022/03/29 11:08:47;;;;;;;35.25;25.85;;;;;;;22.07;40.49;101326.09;5031138;28;20116;-73
2022/03/29 11:12:00;;;;;;;35.78;25.27;;;;;;;22.01;40.30;101322.03;5019451;28;20040;-72
2022/03/29 11:14:30;;;;;;;35.42;27.38;;;;;;;22.29;40.04;101318.03;4988457;28;20124;-73
2022/03/29 11:17:18;;;;;;;38.42;25.73;;;;;;;21.70;40.84;101323.19;5018482;28;20820;-73
2022/03/29 11:19:51;;;;;;;37.33;26.10;;;;;;;22.21;40.25;101321.91;5017351;28;21603;-72
2022/03/29 11:22:42;;;;;;;37.13;25.73;;;;;;;22.13;40.43;101310.69;5018763;28;20250;-73